sensor_id;sensor_type;location;lat;lon;timestamp;temperature;humidity
67817;DHT22;54614;47.576;7.524;2023-02-28T00:01:09;21.20;45.70
67817;DHT22;54614;47.576;7.524;2023-02-28T00:03:35;21.20;45.70
67817;DHT22;54614;47.576;7.524;2023-02-28T00:06:03;21.20;45.70
67817;DHT22;54614;47.576;7.524;2023-02-28T00:08:30;21.20;45.70
67817;DHT22;54614;47.576;7.524;2023-02-28T00:10:56;21.10;45.70
67817;DHT22;54614;47.576;7.524;2023-02-28T00:13:21;21.10;45.80
67817;DHT22;54614;47.576;7.524;2023-02-28T00:15:47;21.10;45.70
67817;DHT22;54614;47.576;7.524;2023-02-28T00:18:23;21.10;45.80
67817;DHT22;54614;47.576;7.524;2023-02-28T00:20:49;21.10;45.70
67817;DHT22;54614;47.576;7.524;2023-02-28T00:23:15;21.10;45.80
67817;DHT22;54614;47.576;7.524;2023-02-28T00:25:40;21.10;45.80
67817;DHT22;54614;47.576;7.524;2023-02-28T00:28:06;21.10;45.70
67817;DHT22;54614;47.576;7.524;2023-02-28T00:30:32;21.10;45.80
67817;DHT22;54614;47.576;7.524;2023-02-28T00:32:58;21.10;45.80
67817;DHT22;54614;47.576;7.524;2023-02-28T00:35:24;21.10;45.90
67817;DHT22;54614;47.576;7.524;2023-02-28T00:37:50;21.10;45.80
67817;DHT22;54614;47.576;7.524;2023-02-28T00:40:16;21.10;45.80
67817;DHT22;54614;47.576;7.524;2023-02-28T00:42:42;21.10;46.00
67817;DHT22;54614;47.576;7.524;2023-02-28T00:45:08;21.10;45.90
67817;DHT22;54614;47.576;7.524;2023-02-28T00:47:37;21.10;45.90
67817;DHT22;54614;47.576;7.524;2023-02-28T00:50:04;21.10;45.90
67817;DHT22;54614;47.576;7.524;2023-02-28T00:52:30;21.00;45.90
67817;DHT22;54614;47.576;7.524;2023-02-28T00:54:56;21.00;46.00
67817;DHT22;54614;47.576;7.524;2023-02-28T00:57:23;21.10;46.00
67817;DHT22;54614;47.576;7.524;2023-02-28T00:59:49;21.00;46.00
67817;DHT22;54614;47.576;7.524;2023-02-28T01:02:15;21.00;46.00
67817;DHT22;54614;47.576;7.524;2023-02-28T01:04:41;21.00;46.00
67817;DHT22;54614;47.576;7.524;2023-02-28T01:07:08;21.10;46.70
67817;DHT22;54614;47.576;7.524;2023-02-28T01:09:34;21.00;46.10
67817;DHT22;54614;47.576;7.524;2023-02-28T01:12:00;21.00;46.00
67817;DHT22;54614;47.576;7.524;2023-02-28T01:14:26;21.00;46.10
67817;DHT22;54614;47.576;7.524;2023-02-28T01:16:52;21.00;46.10
67817;DHT22;54614;47.576;7.524;2023-02-28T01:19:17;21.00;46.10
67817;DHT22;54614;47.576;7.524;2023-02-28T01:21:44;21.00;46.10
67817;DHT22;54614;47.576;7.524;2023-02-28T01:24:09;21.00;46.00
67817;DHT22;54614;47.576;7.524;2023-02-28T01:26:35;21.00;46.10
67817;DHT22;54614;47.576;7.524;2023-02-28T01:29:01;21.00;46.10
67817;DHT22;54614;47.576;7.524;2023-02-28T01:31:27;21.00;46.10
67817;DHT22;54614;47.576;7.524;2023-02-28T01:33:53;21.00;46.10
67817;DHT22;54614;47.576;7.524;2023-02-28T01:36:22;20.90;46.10
67817;DHT22;54614;47.576;7.524;2023-02-28T01:38:49;20.90;46.00
67817;DHT22;54614;47.576;7.524;2023-02-28T01:41:25;20.90;46.10
67817;DHT22;54614;47.576;7.524;2023-02-28T01:43:59;20.90;46.10
67817;DHT22;54614;47.576;7.524;2023-02-28T01:46:33;20.90;46.10
67817;DHT22;54614;47.576;7.524;2023-02-28T01:49:01;20.90;46.10
67817;DHT22;54614;47.576;7.524;2023-02-28T01:51:39;20.90;46.10
67817;DHT22;54614;47.576;7.524;2023-02-28T01:54:16;20.90;46.10
67817;DHT22;54614;47.576;7.524;2023-02-28T01:59:58;20.90;46.20
67817;DHT22;54614;47.576;7.524;2023-02-28T02:02:30;20.90;46.10
67817;DHT22;54614;47.576;7.524;2023-02-28T02:05:02;20.90;46.10
67817;DHT22;54614;47.576;7.524;2023-02-28T02:07:40;20.90;46.10
67817;DHT22;54614;47.576;7.524;2023-02-28T02:10:20;20.90;46.10
67817;DHT22;54614;47.576;7.524;2023-02-28T02:19:46;20.90;46.10
67817;DHT22;54614;47.576;7.524;2023-02-28T02:28:36;20.90;46.20
67817;DHT22;54614;47.576;7.524;2023-02-28T02:37:47;20.90;46.10
67817;DHT22;54614;47.576;7.524;2023-02-28T02:40:30;20.80;46.10
67817;DHT22;54614;47.576;7.524;2023-02-28T02:43:18;20.80;46.10
67817;DHT22;54614;47.576;7.524;2023-02-28T02:45:55;20.80;46.00
67817;DHT22;54614;47.576;7.524;2023-02-28T02:48:27;20.80;46.10
67817;DHT22;54614;47.576;7.524;2023-02-28T02:50:59;20.80;46.00
67817;DHT22;54614;47.576;7.524;2023-02-28T02:53:34;20.80;46.10
67817;DHT22;54614;47.576;7.524;2023-02-28T02:56:04;20.80;46.00
67817;DHT22;54614;47.576;7.524;2023-02-28T02:58:38;20.80;46.10
67817;DHT22;54614;47.576;7.524;2023-02-28T03:01:09;20.80;46.00
67817;DHT22;54614;47.576;7.524;2023-02-28T03:03:38;20.80;46.10
67817;DHT22;54614;47.576;7.524;2023-02-28T03:06:04;20.80;46.10
67817;DHT22;54614;47.576;7.524;2023-02-28T03:08:35;20.80;46.00
67817;DHT22;54614;47.576;7.524;2023-02-28T03:11:10;20.80;46.00
67817;DHT22;54614;47.576;7.524;2023-02-28T03:14:03;20.80;46.00
67817;DHT22;54614;47.576;7.524;2023-02-28T03:25:43;20.70;46.10
67817;DHT22;54614;47.576;7.524;2023-02-28T03:28:54;20.70;46.00
67817;DHT22;54614;47.576;7.524;2023-02-28T03:31:36;20.70;46.00
67817;DHT22;54614;47.576;7.524;2023-02-28T03:34:19;20.70;46.00
67817;DHT22;54614;47.576;7.524;2023-02-28T03:36:55;20.70;46.10
67817;DHT22;54614;47.576;7.524;2023-02-28T03:39:28;20.70;46.00
67817;DHT22;54614;47.576;7.524;2023-02-28T03:42:07;20.70;46.10
67817;DHT22;54614;47.576;7.524;2023-02-28T03:44:47;20.70;46.10
67817;DHT22;54614;47.576;7.524;2023-02-28T03:47:23;20.70;46.00
67817;DHT22;54614;47.576;7.524;2023-02-28T03:50:03;20.70;46.10
67817;DHT22;54614;47.576;7.524;2023-02-28T03:52:46;20.70;46.00
67817;DHT22;54614;47.576;7.524;2023-02-28T03:55:16;20.70;46.00
67817;DHT22;54614;47.576;7.524;2023-02-28T03:58:07;20.70;46.10
67817;DHT22;54614;47.576;7.524;2023-02-28T04:00:38;20.70;46.10
67817;DHT22;54614;47.576;7.524;2023-02-28T04:03:09;20.60;46.10
67817;DHT22;54614;47.576;7.524;2023-02-28T04:05:53;20.70;46.20
67817;DHT22;54614;47.576;7.524;2023-02-28T04:08:22;20.60;46.10
67817;DHT22;54614;47.576;7.524;2023-02-28T04:13:40;20.60;46.20
67817;DHT22;54614;47.576;7.524;2023-02-28T04:16:09;20.60;46.10
67817;DHT22;54614;47.576;7.524;2023-02-28T04:18:38;20.60;46.20
67817;DHT22;54614;47.576;7.524;2023-02-28T04:21:06;20.70;46.10
67817;DHT22;54614;47.576;7.524;2023-02-28T04:23:32;20.60;46.20
67817;DHT22;54614;47.576;7.524;2023-02-28T04:25:58;20.60;46.30
67817;DHT22;54614;47.576;7.524;2023-02-28T04:28:24;20.60;46.30
67817;DHT22;54614;47.576;7.524;2023-02-28T04:30:56;20.60;46.30
67817;DHT22;54614;47.576;7.524;2023-02-28T04:33:27;20.60;46.30
67817;DHT22;54614;47.576;7.524;2023-02-28T04:36:01;20.60;46.30
67817;DHT22;54614;47.576;7.524;2023-02-28T04:38:38;20.60;46.30
67817;DHT22;54614;47.576;7.524;2023-02-28T04:41:05;20.60;46.40
67817;DHT22;54614;47.576;7.524;2023-02-28T04:43:31;20.60;46.40
67817;DHT22;54614;47.576;7.524;2023-02-28T04:46:00;20.60;46.50
67817;DHT22;54614;47.576;7.524;2023-02-28T04:48:29;20.70;46.50
67817;DHT22;54614;47.576;7.524;2023-02-28T04:51:08;20.60;46.40
67817;DHT22;54614;47.576;7.524;2023-02-28T04:53:36;20.60;46.40
67817;DHT22;54614;47.576;7.524;2023-02-28T04:56:03;20.60;46.40
67817;DHT22;54614;47.576;7.524;2023-02-28T04:58:31;20.60;46.40
67817;DHT22;54614;47.576;7.524;2023-02-28T05:01:06;20.60;46.40
67817;DHT22;54614;47.576;7.524;2023-02-28T05:03:41;20.60;46.40
67817;DHT22;54614;47.576;7.524;2023-02-28T05:06:08;20.70;46.60
67817;DHT22;54614;47.576;7.524;2023-02-28T05:08:35;20.70;46.60
67817;DHT22;54614;47.576;7.524;2023-02-28T05:11:01;20.80;46.50
67817;DHT22;54614;47.576;7.524;2023-02-28T05:13:29;20.80;46.20
67817;DHT22;54614;47.576;7.524;2023-02-28T05:15:55;20.80;46.20
67817;DHT22;54614;47.576;7.524;2023-02-28T05:18:21;20.90;46.20
67817;DHT22;54614;47.576;7.524;2023-02-28T05:20:47;20.90;46.10
67817;DHT22;54614;47.576;7.524;2023-02-28T05:23:14;21.00;46.10
67817;DHT22;54614;47.576;7.524;2023-02-28T05:25:42;21.00;46.00
67817;DHT22;54614;47.576;7.524;2023-02-28T05:28:08;21.00;46.60
67817;DHT22;54614;47.576;7.524;2023-02-28T05:30:34;21.10;46.00
67817;DHT22;54614;47.576;7.524;2023-02-28T05:33:00;21.10;46.00
67817;DHT22;54614;47.576;7.524;2023-02-28T05:35:26;21.10;45.90
67817;DHT22;54614;47.576;7.524;2023-02-28T05:37:52;21.10;45.90
67817;DHT22;54614;47.576;7.524;2023-02-28T05:40:18;21.20;45.90
67817;DHT22;54614;47.576;7.524;2023-02-28T05:42:46;21.20;45.90
67817;DHT22;54614;47.576;7.524;2023-02-28T05:45:12;21.20;45.90
67817;DHT22;54614;47.576;7.524;2023-02-28T05:47:38;21.20;45.80
67817;DHT22;54614;47.576;7.524;2023-02-28T05:50:05;21.20;45.80
67817;DHT22;54614;47.576;7.524;2023-02-28T05:52:31;21.30;46.00
67817;DHT22;54614;47.576;7.524;2023-02-28T05:54:57;21.30;46.00
67817;DHT22;54614;47.576;7.524;2023-02-28T05:57:23;21.40;46.00
67817;DHT22;54614;47.576;7.524;2023-02-28T05:59:49;21.50;46.40
67817;DHT22;54614;47.576;7.524;2023-02-28T06:02:16;21.50;46.40
67817;DHT22;54614;47.576;7.524;2023-02-28T06:04:43;21.60;46.10
67817;DHT22;54614;47.576;7.524;2023-02-28T06:07:10;21.60;46.10
67817;DHT22;54614;47.576;7.524;2023-02-28T06:12:04;21.60;49.00
67817;DHT22;54614;47.576;7.524;2023-02-28T06:14:33;21.70;54.70
67817;DHT22;54614;47.576;7.524;2023-02-28T06:17:00;21.60;53.80
67817;DHT22;54614;47.576;7.524;2023-02-28T06:19:27;21.50;52.40
67817;DHT22;54614;47.576;7.524;2023-02-28T06:21:56;21.50;51.60
67817;DHT22;54614;47.576;7.524;2023-02-28T06:24:23;21.60;50.80
67817;DHT22;54614;47.576;7.524;2023-02-28T06:26:50;21.70;50.10
67817;DHT22;54614;47.576;7.524;2023-02-28T06:29:16;21.70;49.70
67817;DHT22;54614;47.576;7.524;2023-02-28T06:31:44;21.80;49.40
67817;DHT22;54614;47.576;7.524;2023-02-28T06:34:11;21.80;49.10
67817;DHT22;54614;47.576;7.524;2023-02-28T06:36:39;21.90;49.10
67817;DHT22;54614;47.576;7.524;2023-02-28T06:39:06;21.70;49.10
67817;DHT22;54614;47.576;7.524;2023-02-28T06:41:33;21.80;48.10
67817;DHT22;54614;47.576;7.524;2023-02-28T06:44:04;21.80;48.30
67817;DHT22;54614;47.576;7.524;2023-02-28T06:46:31;21.80;49.90
67817;DHT22;54614;47.576;7.524;2023-02-28T06:48:57;21.80;49.70
67817;DHT22;54614;47.576;7.524;2023-02-28T06:51:23;21.80;48.60
67817;DHT22;54614;47.576;7.524;2023-02-28T06:53:50;21.80;47.60
67817;DHT22;54614;47.576;7.524;2023-02-28T06:56:17;21.80;47.20
67817;DHT22;54614;47.576;7.524;2023-02-28T06:58:49;21.70;47.30
67817;DHT22;54614;47.576;7.524;2023-02-28T07:01:16;21.70;47.30
67817;DHT22;54614;47.576;7.524;2023-02-28T07:03:44;21.60;47.00
67817;DHT22;54614;47.576;7.524;2023-02-28T07:06:11;21.70;46.80
67817;DHT22;54614;47.576;7.524;2023-02-28T07:08:37;21.60;46.70
67817;DHT22;54614;47.576;7.524;2023-02-28T07:11:05;21.60;46.60
67817;DHT22;54614;47.576;7.524;2023-02-28T07:13:31;21.60;46.50
67817;DHT22;54614;47.576;7.524;2023-02-28T07:15:59;21.60;46.50
67817;DHT22;54614;47.576;7.524;2023-02-28T07:18:27;21.60;46.50
67817;DHT22;54614;47.576;7.524;2023-02-28T07:20:54;21.60;46.50
67817;DHT22;54614;47.576;7.524;2023-02-28T07:23:20;21.60;46.30
67817;DHT22;54614;47.576;7.524;2023-02-28T07:25:47;21.60;46.30
67817;DHT22;54614;47.576;7.524;2023-02-28T07:28:14;21.60;46.30
67817;DHT22;54614;47.576;7.524;2023-02-28T07:30:40;21.60;46.30
67817;DHT22;54614;47.576;7.524;2023-02-28T07:33:06;21.60;46.30
67817;DHT22;54614;47.576;7.524;2023-02-28T07:35:32;21.70;46.30
67817;DHT22;54614;47.576;7.524;2023-02-28T07:37:59;21.70;46.30
67817;DHT22;54614;47.576;7.524;2023-02-28T07:40:26;21.70;46.30
67817;DHT22;54614;47.576;7.524;2023-02-28T07:42:52;21.60;46.30
67817;DHT22;54614;47.576;7.524;2023-02-28T07:45:18;21.60;46.30
67817;DHT22;54614;47.576;7.524;2023-02-28T07:47:45;21.60;46.40
67817;DHT22;54614;47.576;7.524;2023-02-28T07:50:13;21.60;46.40
67817;DHT22;54614;47.576;7.524;2023-02-28T07:52:40;21.60;46.50
67817;DHT22;54614;47.576;7.524;2023-02-28T07:55:07;21.60;46.50
67817;DHT22;54614;47.576;7.524;2023-02-28T07:57:35;21.50;46.40
67817;DHT22;54614;47.576;7.524;2023-02-28T08:00:04;21.50;46.50
67817;DHT22;54614;47.576;7.524;2023-02-28T08:02:31;21.60;46.50
67817;DHT22;54614;47.576;7.524;2023-02-28T08:04:56;21.50;46.50
67817;DHT22;54614;47.576;7.524;2023-02-28T08:07:22;21.50;46.50
67817;DHT22;54614;47.576;7.524;2023-02-28T08:09:48;21.50;46.50
67817;DHT22;54614;47.576;7.524;2023-02-28T08:12:14;21.50;46.60
67817;DHT22;54614;47.576;7.524;2023-02-28T08:14:40;21.50;46.60
67817;DHT22;54614;47.576;7.524;2023-02-28T08:17:06;21.40;46.50
67817;DHT22;54614;47.576;7.524;2023-02-28T08:19:32;21.50;46.50
67817;DHT22;54614;47.576;7.524;2023-02-28T08:21:58;21.50;46.50
67817;DHT22;54614;47.576;7.524;2023-02-28T08:24:24;21.50;46.50
67817;DHT22;54614;47.576;7.524;2023-02-28T08:26:50;21.40;46.30
67817;DHT22;54614;47.576;7.524;2023-02-28T08:29:15;21.50;46.40
67817;DHT22;54614;47.576;7.524;2023-02-28T08:31:42;21.50;46.40
67817;DHT22;54614;47.576;7.524;2023-02-28T08:34:13;21.50;46.40
67817;DHT22;54614;47.576;7.524;2023-02-28T08:36:40;21.40;46.30
67817;DHT22;54614;47.576;7.524;2023-02-28T08:39:08;21.50;46.40
67817;DHT22;54614;47.576;7.524;2023-02-28T08:41:34;21.40;46.30
67817;DHT22;54614;47.576;7.524;2023-02-28T08:44:00;21.40;46.30
67817;DHT22;54614;47.576;7.524;2023-02-28T08:46:26;21.40;46.30
67817;DHT22;54614;47.576;7.524;2023-02-28T08:48:54;21.40;46.30
67817;DHT22;54614;47.576;7.524;2023-02-28T08:51:21;21.40;46.40
67817;DHT22;54614;47.576;7.524;2023-02-28T08:53:53;21.40;46.50
67817;DHT22;54614;47.576;7.524;2023-02-28T08:56:21;21.40;46.60
67817;DHT22;54614;47.576;7.524;2023-02-28T08:58:49;21.40;46.70
67817;DHT22;54614;47.576;7.524;2023-02-28T09:01:21;21.40;46.80
67817;DHT22;54614;47.576;7.524;2023-02-28T09:03:50;21.40;47.20
67817;DHT22;54614;47.576;7.524;2023-02-28T09:06:18;21.30;46.90
67817;DHT22;54614;47.576;7.524;2023-02-28T09:08:46;21.30;47.20
67817;DHT22;54614;47.576;7.524;2023-02-28T09:11:12;21.30;47.20
67817;DHT22;54614;47.576;7.524;2023-02-28T09:13:39;21.30;47.10
67817;DHT22;54614;47.576;7.524;2023-02-28T09:16:07;21.20;46.90
67817;DHT22;54614;47.576;7.524;2023-02-28T09:18:36;21.20;46.80
67817;DHT22;54614;47.576;7.524;2023-02-28T09:21:07;21.20;46.90
67817;DHT22;54614;47.576;7.524;2023-02-28T09:23:35;21.20;46.90
67817;DHT22;54614;47.576;7.524;2023-02-28T09:26:03;21.20;47.00
67817;DHT22;54614;47.576;7.524;2023-02-28T09:28:30;21.20;47.10
67817;DHT22;54614;47.576;7.524;2023-02-28T09:30:56;21.20;47.20
67817;DHT22;54614;47.576;7.524;2023-02-28T09:33:24;21.20;47.20
67817;DHT22;54614;47.576;7.524;2023-02-28T09:35:51;21.20;47.20
67817;DHT22;54614;47.576;7.524;2023-02-28T09:38:23;21.20;47.20
67817;DHT22;54614;47.576;7.524;2023-02-28T09:43:50;21.20;47.00
67817;DHT22;54614;47.576;7.524;2023-02-28T09:46:33;21.20;46.90
67817;DHT22;54614;47.576;7.524;2023-02-28T09:49:12;21.20;47.00
67817;DHT22;54614;47.576;7.524;2023-02-28T09:52:12;21.20;47.10
67817;DHT22;54614;47.576;7.524;2023-02-28T09:54:39;21.20;47.20
67817;DHT22;54614;47.576;7.524;2023-02-28T09:57:07;21.10;47.10
67817;DHT22;54614;47.576;7.524;2023-02-28T10:00:02;21.20;47.30
67817;DHT22;54614;47.576;7.524;2023-02-28T10:02:58;21.20;47.30
67817;DHT22;54614;47.576;7.524;2023-02-28T10:06:13;21.20;47.30
67817;DHT22;54614;47.576;7.524;2023-02-28T10:09:06;21.10;47.10
67817;DHT22;54614;47.576;7.524;2023-02-28T10:11:40;21.20;47.00
67817;DHT22;54614;47.576;7.524;2023-02-28T10:14:14;21.10;46.90
67817;DHT22;54614;47.576;7.524;2023-02-28T10:22:23;21.10;46.80
67817;DHT22;54614;47.576;7.524;2023-02-28T10:24:55;21.10;46.90
67817;DHT22;54614;47.576;7.524;2023-02-28T10:27:29;21.10;47.00
67817;DHT22;54614;47.576;7.524;2023-02-28T10:29:58;21.10;47.10
67817;DHT22;54614;47.576;7.524;2023-02-28T10:32:31;21.10;47.10
67817;DHT22;54614;47.576;7.524;2023-02-28T10:35:15;21.10;47.10
67817;DHT22;54614;47.576;7.524;2023-02-28T10:37:45;21.10;47.20
67817;DHT22;54614;47.576;7.524;2023-02-28T10:48:44;21.00;46.90
67817;DHT22;54614;47.576;7.524;2023-02-28T10:51:16;21.00;46.90
67817;DHT22;54614;47.576;7.524;2023-02-28T10:53:54;21.00;47.10
67817;DHT22;54614;47.576;7.524;2023-02-28T10:56:25;21.00;47.20
67817;DHT22;54614;47.576;7.524;2023-02-28T10:59:22;21.00;47.20
67817;DHT22;54614;47.576;7.524;2023-02-28T11:01:53;21.00;47.20
67817;DHT22;54614;47.576;7.524;2023-02-28T11:04:33;21.00;47.30
67817;DHT22;54614;47.576;7.524;2023-02-28T11:07:20;21.00;47.30
67817;DHT22;54614;47.576;7.524;2023-02-28T11:09:54;21.00;47.10
67817;DHT22;54614;47.576;7.524;2023-02-28T11:14:58;21.00;46.90
67817;DHT22;54614;47.576;7.524;2023-02-28T11:17:31;21.00;46.80
67817;DHT22;54614;47.576;7.524;2023-02-28T11:20:05;21.00;46.60
67817;DHT22;54614;47.576;7.524;2023-02-28T11:22:43;21.00;46.30
67817;DHT22;54614;47.576;7.524;2023-02-28T11:25:33;20.90;45.90
67817;DHT22;54614;47.576;7.524;2023-02-28T11:28:22;20.90;46.00
67817;DHT22;54614;47.576;7.524;2023-02-28T11:33:53;20.90;46.00
67817;DHT22;54614;47.576;7.524;2023-02-28T11:36:29;20.90;46.30
67817;DHT22;54614;47.576;7.524;2023-02-28T11:39:00;20.90;46.30
67817;DHT22;54614;47.576;7.524;2023-02-28T12:03:28;20.90;46.90
67817;DHT22;54614;47.576;7.524;2023-02-28T12:09:12;20.90;46.70
67817;DHT22;54614;47.576;7.524;2023-02-28T12:27:00;20.90;47.20
67817;DHT22;54614;47.576;7.524;2023-02-28T12:29:37;20.90;47.20
67817;DHT22;54614;47.576;7.524;2023-02-28T12:32:21;20.90;47.10
67817;DHT22;54614;47.576;7.524;2023-02-28T12:35:01;20.90;46.90
67817;DHT22;54614;47.576;7.524;2023-02-28T12:37:40;20.90;47.00
67817;DHT22;54614;47.576;7.524;2023-02-28T12:40:23;20.90;47.10
67817;DHT22;54614;47.576;7.524;2023-02-28T12:42:56;20.90;47.10
67817;DHT22;54614;47.576;7.524;2023-02-28T12:46:18;20.90;47.20
67817;DHT22;54614;47.576;7.524;2023-02-28T12:48:50;20.80;47.20
67817;DHT22;54614;47.576;7.524;2023-02-28T12:51:31;20.80;47.20
67817;DHT22;54614;47.576;7.524;2023-02-28T12:54:20;20.80;47.20
67817;DHT22;54614;47.576;7.524;2023-02-28T12:57:06;20.80;47.20
67817;DHT22;54614;47.576;7.524;2023-02-28T12:59:53;20.80;47.80
67817;DHT22;54614;47.576;7.524;2023-02-28T13:10:48;20.80;47.20
67817;DHT22;54614;47.576;7.524;2023-02-28T13:13:22;20.80;47.30
67817;DHT22;54614;47.576;7.524;2023-02-28T13:16:08;20.80;47.30
67817;DHT22;54614;47.576;7.524;2023-02-28T13:18:42;20.80;47.40
67817;DHT22;54614;47.576;7.524;2023-02-28T13:21:29;20.80;47.40
67817;DHT22;54614;47.576;7.524;2023-02-28T13:24:00;20.80;47.30
67817;DHT22;54614;47.576;7.524;2023-02-28T13:29:01;20.80;47.10
67817;DHT22;54614;47.576;7.524;2023-02-28T13:34:32;20.80;47.20
67817;DHT22;54614;47.576;7.524;2023-02-28T13:40:29;20.80;47.30
67817;DHT22;54614;47.576;7.524;2023-02-28T13:42:52;20.80;47.40
67817;DHT22;54614;47.576;7.524;2023-02-28T13:45:25;20.80;47.40
67817;DHT22;54614;47.576;7.524;2023-02-28T13:47:56;20.70;47.40
67817;DHT22;54614;47.576;7.524;2023-02-28T13:55:59;20.70;47.20
67817;DHT22;54614;47.576;7.524;2023-02-28T14:05:00;20.80;47.40
67817;DHT22;54614;47.576;7.524;2023-02-28T14:07:45;20.70;47.40
67817;DHT22;54614;47.576;7.524;2023-02-28T14:10:46;20.70;48.00
67817;DHT22;54614;47.576;7.524;2023-02-28T14:16:26;20.70;47.50
67817;DHT22;54614;47.576;7.524;2023-02-28T14:19:19;20.70;47.40
67817;DHT22;54614;47.576;7.524;2023-02-28T14:25:11;20.70;47.20
67817;DHT22;54614;47.576;7.524;2023-02-28T14:31:20;20.70;47.40
67817;DHT22;54614;47.576;7.524;2023-02-28T14:37:02;20.70;47.50
67817;DHT22;54614;47.576;7.524;2023-02-28T14:39:30;20.70;47.60
67817;DHT22;54614;47.576;7.524;2023-02-28T14:41:57;20.70;47.60
67817;DHT22;54614;47.576;7.524;2023-02-28T14:44:30;20.70;48.20
67817;DHT22;54614;47.576;7.524;2023-02-28T14:47:00;20.70;47.50
67817;DHT22;54614;47.576;7.524;2023-02-28T14:49:42;20.60;47.30
67817;DHT22;54614;47.576;7.524;2023-02-28T14:52:27;20.60;47.30
67817;DHT22;54614;47.576;7.524;2023-02-28T14:55:05;20.60;47.20
67817;DHT22;54614;47.576;7.524;2023-02-28T14:57:43;20.60;47.30
67817;DHT22;54614;47.576;7.524;2023-02-28T15:00:30;20.60;47.40
67817;DHT22;54614;47.576;7.524;2023-02-28T15:02:59;20.60;47.50
67817;DHT22;54614;47.576;7.524;2023-02-28T15:05:34;20.60;47.50
67817;DHT22;54614;47.576;7.524;2023-02-28T15:08:13;20.60;47.60
67817;DHT22;54614;47.576;7.524;2023-02-28T15:10:54;20.60;47.60
67817;DHT22;54614;47.576;7.524;2023-02-28T15:21:48;20.60;48.60
67817;DHT22;54614;47.576;7.524;2023-02-28T15:24:20;20.50;48.90
67817;DHT22;54614;47.576;7.524;2023-02-28T15:26:54;20.50;49.00
67817;DHT22;54614;47.576;7.524;2023-02-28T15:29:25;20.50;48.70
67817;DHT22;54614;47.576;7.524;2023-02-28T15:34:40;20.60;48.40
67817;DHT22;54614;47.576;7.524;2023-02-28T15:43:07;20.60;48.80
67817;DHT22;54614;47.576;7.524;2023-02-28T15:45:50;20.60;48.10
67817;DHT22;54614;47.576;7.524;2023-02-28T15:48:35;20.60;48.20
67817;DHT22;54614;47.576;7.524;2023-02-28T15:59:01;20.60;47.90
67817;DHT22;54614;47.576;7.524;2023-02-28T16:01:32;20.60;47.90
67817;DHT22;54614;47.576;7.524;2023-02-28T16:04:05;20.60;47.80
67817;DHT22;54614;47.576;7.524;2023-02-28T16:06:46;20.60;47.80
67817;DHT22;54614;47.576;7.524;2023-02-28T16:09:25;20.60;47.60
67817;DHT22;54614;47.576;7.524;2023-02-28T16:11:55;20.60;47.50
67817;DHT22;54614;47.576;7.524;2023-02-28T16:14:26;20.60;47.50
67817;DHT22;54614;47.576;7.524;2023-02-28T16:16:57;20.60;47.60
67817;DHT22;54614;47.576;7.524;2023-02-28T16:19:28;20.60;47.60
67817;DHT22;54614;47.576;7.524;2023-02-28T16:21:54;20.60;47.70
67817;DHT22;54614;47.576;7.524;2023-02-28T16:24:20;20.60;47.70
67817;DHT22;54614;47.576;7.524;2023-02-28T16:26:48;20.60;47.70
67817;DHT22;54614;47.576;7.524;2023-02-28T16:29:30;20.60;47.70
67817;DHT22;54614;47.576;7.524;2023-02-28T16:31:59;20.60;47.60
67817;DHT22;54614;47.576;7.524;2023-02-28T16:34:26;20.60;47.70
67817;DHT22;54614;47.576;7.524;2023-02-28T16:36:53;20.60;47.60
67817;DHT22;54614;47.576;7.524;2023-02-28T16:39:19;20.50;47.40
67817;DHT22;54614;47.576;7.524;2023-02-28T16:41:49;20.50;47.50
67817;DHT22;54614;47.576;7.524;2023-02-28T16:44:36;20.60;47.70
67817;DHT22;54614;47.576;7.524;2023-02-28T16:47:03;20.60;47.70
67817;DHT22;54614;47.576;7.524;2023-02-28T16:49:30;20.60;47.80
67817;DHT22;54614;47.576;7.524;2023-02-28T16:51:56;20.60;47.80
67817;DHT22;54614;47.576;7.524;2023-02-28T16:54:22;20.60;47.80
67817;DHT22;54614;47.576;7.524;2023-02-28T16:56:48;20.60;47.70
67817;DHT22;54614;47.576;7.524;2023-02-28T16:59:18;20.70;47.70
67817;DHT22;54614;47.576;7.524;2023-02-28T17:01:47;20.70;47.50
67817;DHT22;54614;47.576;7.524;2023-02-28T17:04:13;20.70;47.40
67817;DHT22;54614;47.576;7.524;2023-02-28T17:06:41;20.80;47.40
67817;DHT22;54614;47.576;7.524;2023-02-28T17:09:14;20.90;47.60
67817;DHT22;54614;47.576;7.524;2023-02-28T17:11:43;20.90;47.50
67817;DHT22;54614;47.576;7.524;2023-02-28T17:14:10;20.90;47.60
67817;DHT22;54614;47.576;7.524;2023-02-28T17:16:37;20.90;47.70
67817;DHT22;54614;47.576;7.524;2023-02-28T17:19:06;21.00;47.70
67817;DHT22;54614;47.576;7.524;2023-02-28T17:21:36;21.00;48.30
67817;DHT22;54614;47.576;7.524;2023-02-28T17:24:03;21.00;47.70
67817;DHT22;54614;47.576;7.524;2023-02-28T17:26:29;21.00;47.50
67817;DHT22;54614;47.576;7.524;2023-02-28T17:31:23;21.10;46.70
67817;DHT22;54614;47.576;7.524;2023-02-28T17:33:50;21.20;48.80
